CPA7 weather

Meaford (General Hospital) Heliport
Meaford, Ontario, Canada

Public forecast

Using degrees Celsius for public forecast. Weather courtesy of forecast.io.

Closest aviation weather report (METAR) to Meaford (General Hospital) Heliport

Closest report is Wiarton Airport, 23.2 nm (43.1 km) WNW. Retrieved 2019/10/16 09:28 UTC (21 minutes ago):

CYVV 160928Z 08007KT 8SM -SHRA OVC020 09/08 A2955 RMK SC8 CVCTV CLD EMBD PRESFR SLP010

Closest aviation forecast (TAF) to Meaford (General Hospital) Heliport

Forecast is more than 12 hours old.

Closest forecast is Wiarton Airport, 23.2 nm (43.1 km) WNW. Retrieved 2019/10/15 20:00 UTC (14 hours ago):

TAF CYVV 151945Z 1520/1523 VRB03KT P6SM SCT060 BKN100 BKN180 BECMG 1521/1523 09008KT RMK NXT FCST WILL BE ISSUED AT 161045Z